Time;durP1;ratioP1;P1;durP2;ratioP2;P2;SDS_P1;SDS_P2;PMS_P1;PMS_P2;Temp;Humidity;BMP_temperature;BMP_pressure;BME280_temperature;BME280_humidity;BME280_pressure;Samples;Min_cycle;Max_cycle;Signal;HPM_P1;HPM_P2
2022/06/07 00:01:33;;;;;;;4.00;1.80;;;;;;;18.22;45.03;100518.06;117363;1182;22631;-50
2022/06/07 00:04:00;;;;;;;2.90;1.40;;;;;;;18.21;45.00;100519.16;117447;1183;21883;-56
2022/06/07 00:06:28;;;;;;;4.50;2.00;;;;;;;18.21;45.00;100517.34;117412;1185;21831;-55
2022/06/07 00:08:55;;;;;;;3.40;1.70;;;;;;;18.22;45.06;100518.58;117416;1180;22963;-50
2022/06/07 00:11:22;;;;;;;2.40;1.60;;;;;;;18.23;45.12;100515.16;117376;1186;23539;-51
2022/06/07 00:13:49;;;;;;;3.20;1.70;;;;;;;18.22;45.05;100513.39;117381;1183;22915;-55
2022/06/07 00:16:17;;;;;;;3.60;1.80;;;;;;;18.23;45.09;100512.67;117422;1186;23618;-50
2022/06/07 00:18:44;;;;;;;2.70;1.60;;;;;;;18.23;45.16;100512.67;117373;1182;21899;-50
2022/06/07 00:21:11;;;;;;;2.10;1.70;;;;;;;18.24;45.07;100510.49;117434;1182;23569;-56
2022/06/07 00:23:39;;;;;;;2.60;1.60;;;;;;;18.23;45.13;100509.14;117449;1185;22894;-50
2022/06/07 00:26:06;;;;;;;3.10;1.60;;;;;;;18.21;45.16;100507.92;117424;1183;21987;-56
2022/06/07 00:28:33;;;;;;;4.00;2.00;;;;;;;18.20;45.24;100504.98;117443;1186;21846;-50
2022/06/07 00:31:00;;;;;;;2.40;1.50;;;;;;;18.18;45.30;100505.23;117362;1183;23541;-55
2022/06/07 00:33:28;;;;;;;2.10;1.50;;;;;;;18.17;45.24;100503.34;117323;1187;23433;-55
2022/06/07 00:35:55;;;;;;;2.60;1.50;;;;;;;18.15;45.27;100503.74;117389;1186;21848;-56
2022/06/07 00:38:22;;;;;;;2.50;1.70;;;;;;;18.12;45.23;100503.88;117351;1185;21947;-50
2022/06/07 00:40:49;;;;;;;3.70;2.00;;;;;;;18.10;45.24;100500.42;117434;1186;21845;-55
2022/06/07 00:43:16;;;;;;;2.70;1.60;;;;;;;18.08;45.28;100501.92;117410;1182;22476;-55
2022/06/07 00:45:43;;;;;;;3.50;1.60;;;;;;;18.06;45.37;100497.23;117327;1186;21845;-56
2022/06/07 00:48:10;;;;;;;2.10;1.40;;;;;;;18.04;45.43;100502.09;117344;1188;21893;-55
2022/06/07 00:50:50;;;;;;;3.70;1.50;;;;;;;18.03;45.49;100503.55;117407;1182;23637;-50
2022/06/07 00:53:21;;;;;;;2.00;1.20;;;;;;;18.00;45.38;100498.54;117401;1185;22905;-50
2022/06/07 00:55:48;;;;;;;3.00;1.80;;;;;;;17.96;45.54;100496.33;117359;1185;22930;-55
2022/06/07 00:58:16;;;;;;;2.60;1.60;;;;;;;17.94;45.36;100498.00;117449;1182;23599;-50
2022/06/07 01:00:43;;;;;;;2.70;1.50;;;;;;;17.91;45.49;100503.63;117408;1183;23414;-50
2022/06/07 01:03:11;;;;;;;2.50;1.60;;;;;;;17.88;45.50;100503.42;117881;1185;22912;-54
2022/06/07 01:05:38;;;;;;;2.60;1.40;;;;;;;17.84;45.54;100507.65;117455;1184;24209;-50
2022/06/07 01:10:51;;;;;;;4.90;1.40;;;;;;;17.81;45.63;100515.77;117317;1182;22500;-50
2022/06/07 01:13:21;;;;;;;3.30;1.50;;;;;;;17.78;45.62;100513.41;117339;1185;22306;-50
2022/06/07 01:15:48;;;;;;;2.30;1.40;;;;;;;17.74;45.53;100513.36;117430;1181;22999;-56
2022/06/07 01:18:16;;;;;;;3.00;1.40;;;;;;;17.73;45.66;100517.33;117431;1182;22912;-49
2022/06/07 01:20:43;;;;;;;1.70;1.30;;;;;;;17.68;45.66;100510.05;117424;1186;22626;-55
2022/06/07 01:23:10;;;;;;;3.20;1.40;;;;;;;17.63;45.74;100511.50;117372;1186;21876;-56
2022/06/07 01:25:38;;;;;;;3.60;1.40;;;;;;;17.59;45.69;100514.32;117479;1184;22915;-55
2022/06/07 01:28:05;;;;;;;2.80;1.80;;;;;;;17.56;45.74;100513.89;117384;1183;23455;-56
2022/06/07 01:30:32;;;;;;;3.60;1.40;;;;;;;17.53;45.80;100509.41;117390;1179;22975;-55
2022/06/07 01:32:59;;;;;;;4.20;1.80;;;;;;;17.51;45.89;100507.15;117396;1186;21861;-50
2022/06/07 01:35:26;;;;;;;3.50;1.50;;;;;;;17.49;45.88;100507.63;117395;1182;23539;-52
2022/06/07 01:37:53;;;;;;;2.10;1.30;;;;;;;17.47;45.86;100507.34;117364;1179;22081;-55
2022/06/07 01:43:05;;;;;;;2.20;1.60;;;;;;;17.43;45.97;100502.73;117313;1183;23630;-55
2022/06/07 01:45:32;;;;;;;2.40;1.50;;;;;;;17.40;46.01;100500.52;117352;1182;23509;-50
2022/06/07 01:47:59;;;;;;;1.90;1.40;;;;;;;17.38;46.06;100504.13;117342;1186;23528;-55
2022/06/07 01:50:26;;;;;;;3.00;1.50;;;;;;;17.36;45.94;100505.09;117362;1182;23560;-56
2022/06/07 01:52:53;;;;;;;3.10;1.20;;;;;;;17.34;46.07;100504.12;117361;1184;23339;-56
2022/06/07 01:55:20;;;;;;;2.40;1.50;;;;;;;17.31;46.06;100508.11;117385;1182;23531;-55
2022/06/07 01:57:47;;;;;;;2.20;1.60;;;;;;;17.29;46.11;100507.14;117346;1186;21891;-49
2022/06/07 02:00:15;;;;;;;3.20;1.60;;;;;;;17.27;46.11;100506.34;117368;1182;23422;-55
2022/06/07 02:02:42;;;;;;;3.60;1.60;;;;;;;17.23;46.09;100507.52;117438;1185;21834;-55
2022/06/07 02:05:09;;;;;;;2.40;1.30;;;;;;;17.22;46.25;100505.61;117382;1182;21846;-49
2022/06/07 02:07:36;;;;;;;2.00;1.40;;;;;;;17.21;46.22;100507.98;117390;1184;21841;-55
2022/06/07 02:10:04;;;;;;;1.90;1.40;;;;;;;17.18;46.23;100509.15;117462;1182;23449;-55
2022/06/07 02:12:31;;;;;;;2.70;1.60;;;;;;;17.17;46.33;100505.66;117418;1182;22975;-56
2022/06/07 02:15:00;;;;;;;5.20;1.70;;;;;;;17.13;46.24;100504.74;117343;1185;22880;-55
2022/06/07 02:17:27;;;;;;;2.30;1.50;;;;;;;17.10;46.38;100506.08;117441;1182;22912;-55
2022/06/07 02:19:54;;;;;;;2.40;1.50;;;;;;;17.08;46.32;100506.15;117337;1183;23367;-55
2022/06/07 02:22:22;;;;;;;3.40;1.60;;;;;;;17.06;46.33;100506.38;117413;1186;23436;-50
2022/06/07 02:24:49;;;;;;;2.90;1.60;;;;;;;17.03;46.41;100509.70;117389;1182;22157;-50
2022/06/07 02:27:17;;;;;;;3.30;1.60;;;;;;;17.01;46.37;100509.23;117376;1183;24157;-56
2022/06/07 02:29:45;;;;;;;3.70;1.70;;;;;;;16.99;46.48;100508.29;117444;1182;22483;-49
2022/06/07 02:32:15;;;;;;;4.20;1.30;;;;;;;16.96;46.52;100512.80;117459;1184;23577;-55
2022/06/07 02:34:42;;;;;;;1.80;1.30;;;;;;;16.94;46.62;100514.61;117397;1185;23637;-55
2022/06/07 02:37:11;;;;;;;2.20;1.50;;;;;;;16.92;46.61;100517.50;117459;1185;22905;-49
2022/06/07 02:39:38;;;;;;;2.50;1.60;;;;;;;16.92;46.76;100516.44;117437;1186;23374;-49
2022/06/07 02:42:06;;;;;;;3.90;2.00;;;;;;;16.92;46.69;100517.15;117321;1182;23440;-55
2022/06/07 02:44:33;;;;;;;2.60;1.90;;;;;;;16.90;46.90;100518.46;117385;1182;23674;-49
2022/06/07 02:47:00;;;;;;;3.60;1.60;;;;;;;16.92;46.85;100520.71;117467;1185;22945;-55
2022/06/07 02:49:27;;;;;;;2.00;1.40;;;;;;;16.94;46.96;100523.10;117351;1182;22943;-55
2022/06/07 02:51:54;;;;;;;1.80;1.50;;;;;;;16.97;47.04;100524.11;117341;1185;23540;-55
2022/06/07 02:54:35;;;;;;;2.70;1.40;;;;;;;17.01;47.12;100528.04;117331;1182;21840;-55
2022/06/07 02:57:03;;;;;;;3.90;1.30;;;;;;;17.06;47.24;100531.58;117395;1186;23531;-55
2022/06/07 02:59:29;;;;;;;1.80;1.40;;;;;;;17.11;47.29;100533.36;117399;1185;23513;-49
2022/06/07 03:01:57;;;;;;;4.00;1.50;;;;;;;17.17;47.32;100532.42;117347;1186;22901;-49
2022/06/07 03:04:24;;;;;;;2.90;1.90;;;;;;;17.22;47.26;100539.14;117475;1185;21971;-56
2022/06/07 03:06:51;;;;;;;3.60;1.50;;;;;;;17.26;47.39;100542.70;117396;1186;23537;-50
2022/06/07 03:09:18;;;;;;;2.80;1.70;;;;;;;17.38;47.39;100542.09;117398;1183;22147;-50
2022/06/07 03:11:45;;;;;;;3.60;1.70;;;;;;;17.42;47.43;100542.46;117400;1180;22927;-55
2022/06/07 03:14:12;;;;;;;4.00;1.40;;;;;;;17.54;47.39;100537.77;117343;1186;23560;-51
2022/06/07 03:16:39;;;;;;;3.00;1.70;;;;;;;17.63;47.48;100536.54;117368;1180;22953;-56
2022/06/07 03:19:06;;;;;;;2.50;1.40;;;;;;;17.72;47.52;100538.49;117366;1184;21913;-55
2022/06/07 03:21:33;;;;;;;2.80;1.40;;;;;;;17.81;47.49;100538.11;117443;1182;22986;-55
2022/06/07 03:24:01;;;;;;;3.30;1.40;;;;;;;17.91;47.46;100538.45;117372;1187;21839;-54
2022/06/07 03:26:29;;;;;;;3.70;1.60;;;;;;;17.97;47.59;100536.96;117422;1185;23628;-50
2022/06/07 03:28:57;;;;;;;5.20;1.90;;;;;;;18.07;47.62;100537.33;117438;1186;21858;-50
2022/06/07 03:31:24;;;;;;;9.20;2.50;;;;;;;18.18;47.61;100535.27;117384;1185;22081;-51
2022/06/07 03:33:51;;;;;;;4.20;2.00;;;;;;;18.30;47.65;100537.44;117412;1186;22966;-54
2022/06/07 03:36:22;;;;;;;4.20;2.00;;;;;;;18.44;47.68;100535.23;117462;1186;22102;-51
2022/06/07 03:38:50;;;;;;;8.50;3.00;;;;;;;18.58;47.62;100535.16;117400;1183;22984;-55
2022/06/07 03:41:21;;;;;;;6.60;3.20;;;;;;;18.70;47.49;100532.34;117491;1183;23610;-51
2022/06/07 03:43:48;;;;;;;6.20;2.60;;;;;;;18.81;47.47;100534.52;117446;1186;22884;-51
2022/06/07 03:46:21;;;;;;;11.30;2.00;;;;;;;18.91;47.49;100533.58;117428;1185;22916;-51
2022/06/07 03:48:49;;;;;;;3.50;2.00;;;;;;;19.01;47.48;100528.16;117288;1184;21849;-55
2022/06/07 03:51:17;;;;;;;7.00;2.30;;;;;;;19.13;47.43;100524.78;117385;1185;21851;-56
2022/06/07 03:53:44;;;;;;;6.10;2.60;;;;;;;19.23;47.54;100524.50;117401;1182;22902;-55
2022/06/07 03:56:12;;;;;;;4.70;2.30;;;;;;;19.28;47.56;100518.05;117339;1185;22442;-55
2022/06/07 03:58:39;;;;;;;7.80;2.70;;;;;;;19.40;47.52;100517.83;117386;1184;23637;-55
2022/06/07 04:01:07;;;;;;;5.70;2.10;;;;;;;19.53;47.54;100515.98;117356;1183;22912;-51
2022/06/07 04:03:42;;;;;;;5.40;2.20;;;;;;;19.68;47.46;100512.95;117396;1185;21841;-51
2022/06/07 04:06:17;;;;;;;4.50;2.10;;;;;;;19.81;47.44;100513.05;117403;1184;23545;-55
2022/06/07 04:08:44;;;;;;;4.30;2.10;;;;;;;19.94;47.37;100515.86;117404;1182;23531;-51
2022/06/07 04:11:12;;;;;;;6.30;3.20;;;;;;;20.05;47.28;100510.68;117460;1186;22892;-52
2022/06/07 04:13:39;;;;;;;6.40;2.80;;;;;;;20.22;47.20;100511.06;117405;1182;21823;-55
2022/06/07 04:16:07;;;;;;;4.40;2.30;;;;;;;20.38;47.04;100511.85;117389;1186;23468;-54
2022/06/07 04:18:34;;;;;;;4.60;2.10;;;;;;;20.51;47.06;100507.62;117494;1185;21848;-55
2022/06/07 04:21:02;;;;;;;3.90;1.80;;;;;;;20.63;46.92;100504.54;117393;1182;22900;-55
2022/06/07 04:23:29;;;;;;;6.10;1.90;;;;;;;20.75;46.79;100505.00;117397;1183;22705;-52
2022/06/07 04:25:56;;;;;;;4.10;2.40;;;;;;;20.88;46.71;100507.55;117379;1181;22911;-52
2022/06/07 04:28:23;;;;;;;4.70;2.50;;;;;;;21.02;46.71;100508.77;117394;1182;23435;-52
2022/06/07 04:30:50;;;;;;;3.50;1.80;;;;;;;21.17;46.55;100514.86;117339;1185;22914;-55
2022/06/07 04:33:17;;;;;;;6.40;2.80;;;;;;;21.33;46.51;100514.02;117317;1185;22577;-52
2022/06/07 04:35:45;;;;;;;2.20;1.20;;;;;;;21.51;46.45;100518.20;117346;1186;22150;-55
2022/06/07 04:38:12;;;;;;;2.50;1.50;;;;;;;21.66;46.25;100514.90;117312;1183;23570;-55
2022/06/07 04:40:41;;;;;;;4.70;1.70;;;;;;;21.79;46.13;100516.32;117543;1184;21960;-53
2022/06/07 04:43:09;;;;;;;2.60;1.10;;;;;;;21.96;46.18;100514.97;117397;1179;21883;-55
2022/06/07 04:45:40;;;;;;;2.60;1.40;;;;;;;22.13;46.10;100516.70;117414;1185;22931;-53
2022/06/07 04:48:08;;;;;;;4.70;1.80;;;;;;;22.27;45.96;100518.70;117277;1184;23613;-55
2022/06/07 04:50:35;;;;;;;5.80;1.70;;;;;;;22.41;45.85;100519.69;117454;1186;23436;-52
2022/06/07 04:53:03;;;;;;;2.40;1.40;;;;;;;22.58;45.78;100518.91;117395;1183;22914;-51
2022/06/07 04:55:30;;;;;;;4.40;1.50;;;;;;;22.74;45.72;100521.16;117330;1184;24146;-52
2022/06/07 04:57:57;;;;;;;4.00;1.60;;;;;;;22.87;45.52;100520.90;117390;1186;22911;-55
2022/06/07 05:00:24;;;;;;;3.90;2.00;;;;;;;22.99;45.39;100518.70;117389;1183;22104;-55
2022/06/07 05:02:51;;;;;;;3.40;1.40;;;;;;;23.14;45.54;100515.64;117305;1182;23467;-52
2022/06/07 05:05:18;;;;;;;3.20;1.40;;;;;;;23.30;45.45;100519.52;117389;1183;22911;-51
2022/06/07 05:07:45;;;;;;;2.00;1.10;;;;;;;23.45;45.33;100521.61;117373;1184;21846;-51
2022/06/07 05:10:16;;;;;;;2.10;1.30;;;;;;;23.63;45.30;100516.36;117400;1180;22921;-55
2022/06/07 05:12:43;;;;;;;;;;;;;;;23.84;45.27;100519.61;117404;1187;21828;-55
2022/06/07 05:15:11;;;;;;;3.00;1.40;;;;;;;24.11;45.26;100519.84;117365;1178;23537;-52
2022/06/07 05:17:38;;;;;;;2.00;1.20;;;;;;;24.39;45.06;100517.45;117452;1183;21897;-55
2022/06/07 05:20:07;;;;;;;3.20;1.30;;;;;;;24.64;44.97;100517.38;117378;1180;23529;-52
2022/06/07 05:22:35;;;;;;;3.40;1.50;;;;;;;24.82;44.71;100518.98;117553;1185;23538;-55
2022/06/07 05:25:07;;;;;;;4.30;1.60;;;;;;;25.02;44.75;100517.29;117381;1186;21846;-55
2022/06/07 05:27:40;;;;;;;3.10;1.40;;;;;;;25.24;44.63;100514.77;117431;1182;23560;-52
2022/06/07 05:30:10;;;;;;;2.40;1.20;;;;;;;25.51;44.42;100515.41;117452;1184;23547;-53
2022/06/07 05:32:38;;;;;;;2.20;1.00;;;;;;;25.71;44.32;100514.34;117373;1185;22719;-52
2022/06/07 05:35:06;;;;;;;2.70;1.20;;;;;;;25.87;44.20;100512.93;117406;1185;22914;-53
2022/06/07 05:37:34;;;;;;;2.40;1.10;;;;;;;26.06;43.89;100516.94;117446;1186;24800;-55
2022/06/07 05:40:03;;;;;;;1.80;1.20;;;;;;;26.18;43.72;100519.09;117447;1183;21861;-53
2022/06/07 05:42:30;;;;;;;2.70;1.30;;;;;;;26.28;43.48;100509.94;117477;1186;23538;-55
2022/06/07 05:44:57;;;;;;;3.20;1.30;;;;;;;26.46;43.38;100514.45;117386;1185;23436;-56
2022/06/07 05:47:25;;;;;;;1.60;1.10;;;;;;;26.74;43.22;100514.99;117423;1186;21867;-51
2022/06/07 05:49:52;;;;;;;1.90;1.20;;;;;;;26.98;43.01;100517.98;117338;1185;24200;-54
2022/06/07 05:52:19;;;;;;;2.40;1.10;;;;;;;27.14;42.68;100515.86;117433;1185;23580;-55
2022/06/07 05:54:46;;;;;;;2.70;1.20;;;;;;;27.31;42.76;100513.41;117394;1180;21872;-56
2022/06/07 05:57:13;;;;;;;2.20;1.10;;;;;;;27.54;42.68;100513.03;117324;1186;22811;-54
2022/06/07 05:59:40;;;;;;;1.90;1.30;;;;;;;27.84;42.55;100511.50;117336;1184;22610;-53
2022/06/07 06:02:09;;;;;;;2.80;1.30;;;;;;;28.10;42.28;100514.58;117350;1185;22915;-55
2022/06/07 06:04:36;;;;;;;4.10;1.10;;;;;;;28.30;42.17;100513.06;117317;1185;23435;-53
2022/06/07 06:07:04;;;;;;;2.50;1.00;;;;;;;28.52;42.17;100513.41;117335;1183;23451;-54
2022/06/07 06:12:22;;;;;;;2.80;1.30;;;;;;;28.99;41.78;100508.80;117419;1185;23616;-56
2022/06/07 06:14:49;;;;;;;2.70;1.10;;;;;;;29.19;41.41;100507.24;117346;1185;21888;-54
2022/06/07 06:17:16;;;;;;;2.50;1.30;;;;;;;29.39;41.58;100509.13;117415;1183;24156;-56
2022/06/07 06:19:43;;;;;;;2.50;1.20;;;;;;;29.62;41.24;100507.55;117385;1183;23021;-56
2022/06/07 06:22:11;;;;;;;2.30;1.40;;;;;;;29.83;40.81;100501.89;117459;1183;23752;-56
2022/06/07 06:24:38;;;;;;;2.70;1.80;;;;;;;29.96;40.60;100499.92;117290;1183;22924;-55
2022/06/07 06:27:05;;;;;;;3.80;2.20;;;;;;;30.07;40.72;100502.45;117413;1182;23528;-56
2022/06/07 06:29:32;;;;;;;3.30;2.00;;;;;;;30.38;40.33;100498.84;117374;1186;23667;-55
2022/06/07 06:31:59;;;;;;;4.10;2.40;;;;;;;30.61;39.92;100501.70;117348;1185;24223;-53
2022/06/07 06:34:29;;;;;;;3.90;2.00;;;;;;;30.77;39.93;100499.15;117336;1186;24168;-54
2022/06/07 06:36:57;;;;;;;5.80;2.60;;;;;;;30.95;39.59;100501.17;117420;1186;21846;-56
2022/06/07 06:39:24;;;;;;;5.30;2.30;;;;;;;31.07;39.49;100500.02;117388;1186;21839;-55
2022/06/07 06:41:51;;;;;;;5.70;2.10;;;;;;;31.10;39.21;100499.77;117269;1183;21900;-54
2022/06/07 06:44:18;;;;;;;4.80;2.30;;;;;;;31.10;39.16;100500.80;117413;1185;23435;-57
2022/06/07 06:46:47;;;;;;;3.90;2.20;;;;;;;31.24;39.14;100497.52;117390;1182;23455;-53
2022/06/07 06:49:15;;;;;;;11.90;3.00;;;;;;;31.52;38.92;100496.65;117450;1185;21845;-54
2022/06/07 06:51:42;;;;;;;3.60;2.40;;;;;;;31.74;38.75;100496.43;117378;1183;23541;-56
2022/06/07 06:54:11;;;;;;;5.10;2.50;;;;;;;31.90;38.54;100494.83;117423;1184;22242;-55
2022/06/07 06:56:38;;;;;;;3.90;2.50;;;;;;;32.03;38.26;100492.82;117366;1186;21849;-56
2022/06/07 06:59:06;;;;;;;3.40;2.50;;;;;;;32.14;37.95;100490.81;117418;1185;21837;-54
2022/06/07 07:01:33;;;;;;;7.10;3.10;;;;;;;32.28;37.76;100490.83;117446;1183;23570;-56
2022/06/07 07:04:02;;;;;;;4.70;2.70;;;;;;;32.40;37.66;100488.11;117361;1186;23438;-58
2022/06/07 07:06:30;;;;;;;3.80;2.40;;;;;;;32.55;37.49;100486.60;117345;1186;22718;-54
2022/06/07 07:08:58;;;;;;;3.50;2.30;;;;;;;32.66;37.30;100485.14;117409;1183;24141;-57
2022/06/07 07:11:26;;;;;;;4.30;2.10;;;;;;;32.81;37.22;100488.70;117450;1186;22066;-54
2022/06/07 07:13:54;;;;;;;3.40;2.60;;;;;;;32.99;36.89;100487.48;117340;1185;23541;-56
2022/06/07 07:16:24;;;;;;;4.40;2.30;;;;;;;33.15;36.80;100482.71;117436;1186;21849;-56
2022/06/07 07:18:51;;;;;;;;;;;;;;;33.24;36.42;100484.15;117446;1185;23760;-54
2022/06/07 07:21:21;;;;;;;2.70;1.70;;;;;;;33.34;36.03;100482.86;117413;1186;22899;-54
2022/06/07 07:23:49;;;;;;;4.40;1.70;;;;;;;33.45;35.78;100482.33;117397;1185;24265;-55
2022/06/07 07:26:18;;;;;;;2.60;1.70;;;;;;;33.53;35.84;100481.46;117437;1181;24256;-56
2022/06/07 07:28:45;;;;;;;3.60;1.60;;;;;;;33.65;35.51;100480.73;117442;1185;21851;-53
2022/06/07 07:31:21;;;;;;;3.70;1.50;;;;;;;33.78;35.38;100480.78;117409;1181;24152;-54
2022/06/07 07:33:48;;;;;;;2.10;1.30;;;;;;;33.97;35.28;100478.53;117397;1186;21853;-54
2022/06/07 07:36:15;;;;;;;4.40;1.30;;;;;;;34.16;34.59;100483.02;117399;1183;22822;-55
2022/06/07 07:38:42;;;;;;;2.90;1.40;;;;;;;34.29;34.39;100485.70;117417;1183;21966;-58
2022/06/07 07:41:34;;;;;;;1.70;0.90;;;;;;;34.38;34.04;100483.44;117360;1183;22924;-58
2022/06/07 07:44:02;;;;;;;3.10;1.40;;;;;;;34.36;32.72;100480.74;117435;1184;24153;-57
2022/06/07 07:46:31;;;;;;;3.50;1.50;;;;;;;34.34;33.50;100481.40;117445;1184;23472;-57
2022/06/07 07:48:58;;;;;;;2.00;1.30;;;;;;;34.52;33.82;100478.07;117431;1182;21852;-55
2022/06/07 07:51:30;;;;;;;3.80;1.20;;;;;;;34.77;33.59;100478.77;117373;1183;22113;-57
2022/06/07 07:53:58;;;;;;;3.80;1.50;;;;;;;35.05;33.60;100473.34;117363;1182;22646;-57
2022/06/07 07:56:26;;;;;;;2.40;1.40;;;;;;;35.29;33.40;100469.48;117498;1182;22982;-55
2022/06/07 07:58:53;;;;;;;2.50;1.30;;;;;;;35.49;32.91;100471.77;117354;1186;23553;-54
2022/06/07 08:01:22;;;;;;;2.40;1.60;;;;;;;35.64;32.76;100470.22;117506;1182;22921;-55
2022/06/07 08:03:49;;;;;;;3.70;1.40;;;;;;;35.78;32.61;100471.45;117395;1186;21848;-58
2022/06/07 08:06:18;;;;;;;2.00;1.40;;;;;;;35.96;32.14;100467.86;117453;1185;23433;-57
2022/06/07 08:08:46;;;;;;;3.10;1.50;;;;;;;36.06;31.90;100462.15;117391;1179;22912;-59
2022/06/07 08:11:14;;;;;;;5.30;1.70;;;;;;;36.18;32.07;100461.73;117246;1188;21978;-55
2022/06/07 08:13:42;;;;;;;3.00;2.00;;;;;;;36.29;31.63;100466.55;117395;1185;22992;-59
2022/06/07 08:16:10;;;;;;;3.00;1.60;;;;;;;36.43;31.40;100466.17;117452;1185;22933;-58
2022/06/07 08:18:38;;;;;;;3.50;1.50;;;;;;;36.53;31.44;100465.69;117357;1183;21858;-55
2022/06/07 08:21:07;;;;;;;2.50;1.80;;;;;;;36.64;31.14;100462.69;117399;1183;21853;-55
2022/06/07 08:23:35;;;;;;;3.00;1.70;;;;;;;36.73;30.82;100460.66;117385;1183;21845;-55
2022/06/07 08:26:04;;;;;;;4.10;1.90;;;;;;;36.83;29.84;100463.20;117390;1184;21864;-59
2022/06/07 08:28:31;;;;;;;4.50;1.90;;;;;;;36.84;30.14;100466.91;117353;1186;21834;-59
2022/06/07 08:30:59;;;;;;;3.80;2.00;;;;;;;36.94;30.28;100468.45;117395;1183;23567;-55
2022/06/07 08:39:07;;;;;;;2.90;2.00;;;;;;;37.37;29.74;100465.87;117325;1183;21934;-55
2022/06/07 08:41:51;;;;;;;3.90;1.80;;;;;;;37.35;28.93;100467.36;117389;1186;23487;-58
2022/06/07 08:44:40;;;;;;;3.10;2.10;;;;;;;37.21;28.86;100465.05;117372;1183;22835;-54
2022/06/07 08:47:17;;;;;;;3.50;1.90;;;;;;;37.33;29.04;100463.25;117279;1186;23008;-58
2022/06/07 08:49:45;;;;;;;5.50;2.20;;;;;;;37.51;27.71;100467.77;117404;1182;23672;-57
2022/06/07 08:52:26;;;;;;;4.60;2.10;;;;;;;37.39;26.72;100463.23;117330;1185;21848;-53
2022/06/07 08:54:55;;;;;;;3.80;2.50;;;;;;;37.21;27.88;100459.57;117343;1186;21891;-55
2022/06/07 08:57:27;;;;;;;5.00;2.70;;;;;;;37.25;26.84;100454.94;117364;1182;21846;-57
2022/06/07 08:59:56;;;;;;;4.20;2.10;;;;;;;37.14;27.43;100451.08;117297;1189;21848;-54
2022/06/07 09:02:31;;;;;;;3.90;2.50;;;;;;;37.14;28.05;100448.63;117411;1182;22890;-57
2022/06/07 09:04:59;;;;;;;3.30;2.00;;;;;;;37.33;27.94;100449.45;117467;1186;21854;-54
2022/06/07 09:07:26;;;;;;;8.70;2.80;;;;;;;37.57;27.97;100447.27;117364;1179;21887;-54
2022/06/07 09:13:02;;;;;;;4.00;2.60;;;;;;;37.93;26.93;100439.02;117373;1185;23560;-54
2022/06/07 09:15:31;;;;;;;5.20;2.90;;;;;;;37.80;27.05;100437.53;117361;1186;21840;-56
2022/06/07 09:18:01;;;;;;;3.70;2.30;;;;;;;37.93;27.13;100439.22;117390;1185;21920;-58
2022/06/07 09:20:38;;;;;;;3.40;2.00;;;;;;;38.15;27.04;100437.36;117406;1182;23560;-54
2022/06/07 09:23:24;;;;;;;6.30;3.30;;;;;;;38.22;24.94;100435.82;117322;1184;23590;-54
2022/06/07 09:25:53;;;;;;;4.20;2.80;;;;;;;38.00;26.12;100432.70;117359;1182;23586;-57
2022/06/07 09:28:26;;;;;;;7.10;2.80;;;;;;;38.04;26.63;100430.45;117448;1185;23110;-56
2022/06/07 09:31:01;;;;;;;4.50;2.50;;;;;;;38.28;26.54;100430.84;117421;1185;21853;-54
2022/06/07 09:33:33;;;;;;;5.90;2.70;;;;;;;38.52;25.99;100427.13;117427;1185;21954;-55
2022/06/07 09:36:09;;;;;;;4.80;2.70;;;;;;;38.66;26.06;100433.16;117385;1185;23274;-54
2022/06/07 09:38:41;;;;;;;5.40;3.10;;;;;;;38.78;25.98;100430.68;117383;1182;22938;-54
2022/06/07 09:44:32;;;;;;;4.30;2.70;;;;;;;39.05;25.91;100420.79;117373;1185;21969;-55
2022/06/07 09:47:14;;;;;;;4.20;2.80;;;;;;;39.30;25.48;100424.43;117282;1186;24197;-54
2022/06/07 09:49:46;;;;;;;4.00;2.80;;;;;;;39.34;25.16;100424.15;117419;1183;21851;-54
2022/06/07 09:52:23;;;;;;;5.80;3.00;;;;;;;39.18;24.78;100425.15;117428;1183;24274;-57
2022/06/07 09:55:18;;;;;;;6.10;2.70;;;;;;;39.12;24.90;100421.06;117382;1185;21896;-55
2022/06/07 09:58:06;;;;;;;6.90;3.10;;;;;;;39.25;24.95;100419.33;117206;1182;23560;-58
2022/06/07 10:00:40;;;;;;;5.00;3.00;;;;;;;39.49;24.61;100414.78;117416;1186;21960;-57
2022/06/07 10:03:29;;;;;;;5.20;3.00;;;;;;;39.77;24.67;100407.58;117353;1183;22969;-57
2022/06/07 10:06:26;;;;;;;5.60;3.20;;;;;;;39.99;24.67;100407.29;117315;1182;21849;-55
2022/06/07 10:09:15;;;;;;;4.90;3.10;;;;;;;40.16;24.12;100404.04;117369;1186;22913;-55
2022/06/07 10:11:48;;;;;;;6.70;3.60;;;;;;;39.90;23.26;100399.39;117360;1185;21914;-57
2022/06/07 10:14:50;;;;;;;6.10;3.40;;;;;;;39.42;23.50;100401.43;117382;1183;22866;-55
2022/06/07 10:17:42;;;;;;;5.70;3.10;;;;;;;39.22;23.47;100400.14;117379;1182;21954;-57
2022/06/07 10:20:32;;;;;;;4.40;3.50;;;;;;;39.18;23.20;100397.45;117444;1183;21846;-55
2022/06/07 10:23:27;;;;;;;4.20;2.50;;;;;;;38.97;22.58;100394.18;117386;1183;21887;-54
2022/06/07 10:26:03;;;;;;;3.50;2.20;;;;;;;38.59;22.57;100391.16;117374;1183;22895;-54
2022/06/07 10:28:42;;;;;;;4.30;2.90;;;;;;;38.26;22.32;100392.34;117412;1189;22906;-56
2022/06/07 10:31:49;;;;;;;4.50;3.20;;;;;;;38.00;22.13;100389.25;117310;1185;22921;-55
2022/06/07 10:34:29;;;;;;;4.40;3.20;;;;;;;37.79;22.19;100391.92;117393;1185;22088;-56
2022/06/07 10:37:59;;;;;;;4.90;2.90;;;;;;;37.75;21.94;100391.40;117321;1185;22627;-56
2022/06/07 10:40:31;;;;;;;;;;;;;;;37.78;22.28;100388.29;117071;1188;21842;-57
2022/06/07 10:43:04;;;;;;;7.60;3.30;;;;;;;37.95;22.42;100388.80;117035;1187;21920;-58
2022/06/07 10:45:37;;;;;;;7.60;3.50;;;;;;;38.22;22.88;100394.86;116989;1186;23684;-54
2022/06/07 10:48:04;;;;;;;4.10;3.20;;;;;;;38.73;23.10;100393.01;117065;1186;22016;-57
2022/06/07 10:50:33;;;;;;;7.20;3.30;;;;;;;39.14;22.52;100381.08;117001;1186;21866;-55
2022/06/07 10:53:12;;;;;;;5.70;3.40;;;;;;;39.42;22.57;100383.77;117164;1189;21897;-54
2022/06/07 10:55:54;;;;;;;4.60;3.40;;;;;;;39.75;22.02;100382.38;116935;1187;21962;-56
2022/06/07 10:58:35;;;;;;;4.40;2.70;;;;;;;39.75;22.30;100384.05;117033;1182;22908;-56
2022/06/07 11:01:21;;;;;;;4.40;2.60;;;;;;;39.98;22.39;100378.15;117101;1186;21850;-54
2022/06/07 11:04:09;;;;;;;3.20;2.50;;;;;;;40.19;22.51;100379.02;117047;1184;21894;-56
2022/06/07 11:09:51;;;;;;;5.00;2.70;;;;;;;40.72;21.96;100373.21;116970;1186;22619;-54
2022/06/07 11:12:32;;;;;;;4.50;2.90;;;;;;;40.93;22.05;100373.29;117332;1179;23471;-55
2022/06/07 11:15:18;;;;;;;6.10;3.20;;;;;;;41.13;21.76;100376.34;117467;1186;22078;-57
2022/06/07 11:17:54;;;;;;;4.40;3.00;;;;;;;41.30;21.53;100372.95;117340;1185;21880;-55
2022/06/07 11:20:27;;;;;;;5.10;2.90;;;;;;;41.41;21.51;100371.52;117454;1182;21906;-56
2022/06/07 11:22:56;;;;;;;5.50;3.00;;;;;;;41.50;21.37;100370.48;117294;1185;21857;-54
2022/06/07 11:25:27;;;;;;;5.00;3.10;;;;;;;41.44;20.33;100366.48;117363;1182;23583;-55
2022/06/07 11:27:59;;;;;;;4.50;3.00;;;;;;;40.94;20.24;100365.34;117413;1186;21852;-54
2022/06/07 11:30:38;;;;;;;4.10;2.90;;;;;;;40.58;20.73;100368.63;117413;1185;23458;-55
2022/06/07 11:33:27;;;;;;;4.70;2.60;;;;;;;40.62;20.61;100365.30;117424;1182;21840;-57
2022/06/07 11:36:25;;;;;;;7.60;3.20;;;;;;;40.67;20.23;100362.36;117341;1183;23839;-57
2022/06/07 11:38:54;;;;;;;5.30;3.00;;;;;;;40.45;20.54;100363.80;117386;1186;22144;-58
2022/06/07 11:41:37;;;;;;;3.40;2.70;;;;;;;40.46;20.43;100363.37;117400;1182;24327;-58
2022/06/07 11:44:28;;;;;;;5.00;2.80;;;;;;;40.41;20.14;100361.48;117357;1185;22992;-56
2022/06/07 11:47:19;;;;;;;3.80;2.40;;;;;;;40.48;20.49;100354.29;117356;1185;23573;-54
2022/06/07 11:49:46;;;;;;;7.00;2.70;;;;;;;40.50;19.96;100348.52;117502;1186;21849;-54
2022/06/07 11:52:18;;;;;;;5.80;2.50;;;;;;;40.22;19.94;100352.86;117386;1182;21884;-56
2022/06/07 11:54:48;;;;;;;4.70;2.50;;;;;;;40.11;19.98;100357.55;117381;1183;24219;-55
2022/06/07 11:57:37;;;;;;;6.30;2.60;;;;;;;39.89;19.92;100352.23;117291;1185;21850;-55